Time;durP1;ratioP1;P1;durP2;ratioP2;P2;SDS_P1;SDS_P2;PMS_P1;PMS_P2;Temp;Humidity;BMP_temperature;BMP_pressure;BME280_temperature;BME280_humidity;BME280_pressure;Samples;Min_cycle;Max_cycle;Signal;HPM_P1;HPM_P2
2022/12/01 00:01:54;;;;;;;0.65;0.57;;;;;;;5.35;63.98;101181.47;18417644;32;20121;-58
2022/12/01 00:11:58;;;;;;;1.77;1.67;;;;;;;5.65;63.72;101184.16;18431191;32;20162;-59
2022/12/01 00:22:01;;;;;;;1.00;1.00;;;;;;;5.64;63.68;101197.03;18432097;32;20085;-58
2022/12/01 00:32:06;;;;;;;0.60;0.60;;;;;;;5.74;63.28;101200.81;18430786;32;20101;-59
2022/12/01 00:42:09;;;;;;;2.08;1.98;;;;;;;5.62;63.26;101207.38;18429450;32;20137;-58
2022/12/01 00:52:17;;;;;;;0.55;0.55;;;;;;;5.48;63.02;101216.41;18415296;32;20138;-59
2022/12/01 01:02:20;;;;;;;0.90;0.90;;;;;;;5.13;62.81;101225.69;18423993;32;158080;-59
2022/12/01 01:12:24;;;;;;;0.60;0.60;;;;;;;4.88;62.73;101229.13;18428476;32;20373;-59
2022/12/01 01:22:27;;;;;;;0.73;0.73;;;;;;;4.55;62.84;101233.19;18427909;32;20170;-58
2022/12/01 01:32:32;;;;;;;0.80;0.80;;;;;;;4.31;63.04;101222.81;18428486;32;20139;-58
2022/12/01 01:42:35;;;;;;;0.80;0.80;;;;;;;4.08;63.22;101211.62;18413585;32;20101;-59
2022/12/01 01:52:43;;;;;;;0.57;0.57;;;;;;;3.99;63.55;101214.75;18428666;32;20107;-58
2022/12/01 02:02:47;;;;;;;1.02;1.02;;;;;;;4.08;62.91;101212.50;18436817;32;20142;-58
2022/12/01 02:13:04;;;;;;;1.15;1.15;;;;;;;3.79;63.32;101227.78;18436388;32;20112;-58
2022/12/01 02:23:31;;;;;;;0.75;0.75;;;;;;;3.56;63.99;101220.03;18435120;32;20162;-58
2022/12/01 02:33:40;;;;;;;0.60;0.60;;;;;;;3.46;64.05;101231.66;18435645;32;20093;-58
2022/12/01 02:43:47;;;;;;;1.12;1.12;;;;;;;3.25;64.20;101228.22;18434513;32;20138;-58
2022/12/01 02:53:52;;;;;;;0.82;0.82;;;;;;;3.15;64.83;101227.84;18433946;32;20100;-58
2022/12/01 03:04:02;;;;;;;0.90;0.90;;;;;;;3.05;64.40;101220.53;18433065;32;20123;-58
2022/12/01 03:14:19;;;;;;;0.80;0.80;;;;;;;3.05;64.44;101221.41;18433202;32;20103;-58
2022/12/01 03:24:25;;;;;;;0.82;0.82;;;;;;;2.98;64.57;101203.03;18433268;32;20100;-58
2022/12/01 03:34:34;;;;;;;0.90;0.90;;;;;;;3.01;64.79;101198.00;18418262;32;20119;-59
2022/12/01 03:44:42;;;;;;;4.53;4.28;;;;;;;3.03;64.56;101204.09;18433839;32;20111;-59
2022/12/01 03:54:52;;;;;;;3.42;3.12;;;;;;;2.87;64.43;101205.16;18431094;32;20110;-58
2022/12/01 04:04:55;;;;;;;0.73;0.73;;;;;;;2.87;64.38;101200.88;18431714;32;20339;-58
2022/12/01 04:15:01;;;;;;;2.53;2.33;;;;;;;2.54;65.05;101197.75;18431638;32;20101;-58
2022/12/01 04:25:05;;;;;;;0.77;0.77;;;;;;;2.61;64.50;101200.66;18432172;32;20100;-58
2022/12/01 04:35:12;;;;;;;0.80;0.80;;;;;;;2.53;64.55;101199.44;18430821;32;20138;-58
2022/12/01 04:45:15;;;;;;;0.77;0.77;;;;;;;2.55;64.58;101213.25;18431413;32;20146;-59
2022/12/01 04:55:21;;;;;;;0.98;0.95;;;;;;;2.58;64.74;101209.94;18429503;32;20093;-59
2022/12/01 05:05:24;;;;;;;0.70;0.70;;;;;;;2.41;64.30;101219.53;18429889;32;20099;-58
2022/12/01 05:15:29;;;;;;;1.73;1.62;;;;;;;2.48;64.03;101217.28;18429304;32;20401;-59
2022/12/01 05:25:32;;;;;;;0.85;0.85;;;;;;;2.45;64.13;101234.28;18429017;32;20093;-58
2022/12/01 05:35:37;;;;;;;0.80;0.80;;;;;;;2.49;64.15;101254.25;18436458;32;20104;-58
2022/12/01 05:45:40;;;;;;;1.60;1.58;;;;;;;2.29;64.14;101232.72;18436357;32;20105;-58
2022/12/01 05:55:45;;;;;;;1.20;1.20;;;;;;;2.50;64.22;101225.94;18435528;32;20432;-58
2022/12/01 06:05:48;;;;;;;27.35;2.90;;;;;;;2.30;64.53;101237.97;18417995;32;20111;-58
2022/12/01 06:16:01;;;;;;;1.00;1.00;;;;;;;2.34;64.17;101244.16;18395459;32;20722;-58
2022/12/01 06:26:04;;;;;;;0.85;0.85;;;;;;;2.20;63.95;101252.09;18370925;32;20107;-58
2022/12/01 06:36:10;;;;;;;0.98;0.95;;;;;;;2.13;63.58;101250.06;18371444;32;20097;-58
2022/12/01 06:46:17;;;;;;;1.35;1.35;;;;;;;2.13;64.23;101249.19;18370109;32;20102;-58
2022/12/01 06:56:22;;;;;;;0.90;0.90;;;;;;;2.16;64.06;101247.63;18365088;32;20089;-58
2022/12/01 07:06:26;;;;;;;0.70;0.70;;;;;;;2.58;63.37;101264.97;18411860;32;20081;-58
2022/12/01 07:16:31;;;;;;;2.70;1.40;;;;;;;2.52;64.23;101262.09;18433256;32;20156;-59
2022/12/01 07:26:34;;;;;;;3.83;3.45;;;;;;;3.36;63.00;101252.75;18433116;32;20112;-58
2022/12/01 07:36:39;;;;;;;8.20;7.53;;;;;;;4.10;61.56;101247.03;18432756;32;20465;-58
2022/12/01 07:46:42;;;;;;;2.05;1.95;;;;;;;4.45;60.46;101251.75;18429225;32;20383;-58
2022/12/01 07:56:47;;;;;;;0.88;0.88;;;;;;;4.21;61.77;101244.88;18431664;32;20085;-59
2022/12/01 08:06:50;;;;;;;0.77;0.77;;;;;;;4.35;62.12;101235.03;18432239;32;20109;-59
2022/12/01 08:16:55;;;;;;;1.05;1.05;;;;;;;4.56;62.69;101246.97;18430592;32;20113;-59
2022/12/01 08:26:58;;;;;;;5.68;3.25;;;;;;;4.81;62.44;101245.28;18393743;32;20101;-59
2022/12/01 08:37:03;;;;;;;2.25;2.15;;;;;;;4.91;62.67;101247.37;18428642;32;20103;-58
2022/12/01 08:47:06;;;;;;;3.95;3.65;;;;;;;5.33;62.61;101246.19;18415160;32;20445;-59
2022/12/01 08:57:11;;;;;;;1.02;1.02;;;;;;;5.90;61.85;101253.97;18427877;32;20133;-59
2022/12/01 09:07:15;;;;;;;2.22;2.12;;;;;;;6.35;61.14;101252.75;18436640;32;20131;-59
2022/12/01 09:17:26;;;;;;;1.87;1.73;;;;;;;6.63;60.52;101248.34;18437366;32;20368;-59
2022/12/01 09:27:29;;;;;;;0.52;0.52;;;;;;;7.05;58.51;101237.34;18436915;32;20097;-59
2022/12/01 09:37:34;;;;;;;0.40;0.40;;;;;;;7.25;56.25;101230.91;18436911;32;20381;-59
2022/12/01 09:47:38;;;;;;;0.62;0.62;;;;;;;7.79;55.33;101221.81;18418748;32;20101;-59
2022/12/01 09:57:44;;;;;;;0.50;0.50;;;;;;;7.88;54.96;101222.00;18434447;32;20085;-59
2022/12/01 10:07:49;;;;;;;1.62;1.52;;;;;;;8.10;54.81;101205.97;18435443;32;20115;-59
2022/12/01 10:18:04;;;;;;;2.15;2.00;;;;;;;8.76;55.95;101202.94;18434778;32;20159;-59
2022/12/01 10:28:24;;;;;;;0.73;0.68;;;;;;;8.10;54.80;101199.06;18426319;32;20107;-59
2022/12/01 10:38:30;;;;;;;1.02;0.80;;;;;;;8.60;53.96;101200.06;18370341;32;20119;-59
2022/12/01 10:48:33;;;;;;;1.90;1.75;;;;;;;9.00;52.58;101181.66;18370430;32;20108;-59
2022/12/01 10:58:45;;;;;;;0.68;0.68;;;;;;;8.95;51.91;101172.87;18369609;32;20487;-59
2022/12/01 11:08:52;;;;;;;1.98;1.77;;;;;;;9.33;52.05;101159.59;18369769;32;20108;-59
2022/12/01 11:19:08;;;;;;;0.80;0.80;;;;;;;9.82;50.21;101158.56;18369557;32;20092;-59
2022/12/01 11:29:30;;;;;;;0.80;0.80;;;;;;;9.49;49.43;101163.34;18368738;32;20088;-59
2022/12/01 11:39:36;;;;;;;0.70;0.70;;;;;;;9.88;46.67;101145.59;18232058;32;20162;-59
2022/12/01 11:49:42;;;;;;;0.60;0.60;;;;;;;10.45;45.37;101126.28;18242827;32;20460;-59
2022/12/01 11:59:50;;;;;;;0.80;0.80;;;;;;;9.76;44.42;101128.03;18367881;32;20437;-59
2022/12/01 12:10:04;;;;;;;0.70;0.70;;;;;;;9.15;44.92;101124.63;18368521;32;20116;-59
2022/12/01 12:20:22;;;;;;;0.95;0.95;;;;;;;9.12;45.93;101116.75;18367942;32;20365;-59
2022/12/01 12:30:28;;;;;;;1.70;1.58;;;;;;;9.99;44.96;101119.66;18368252;32;20101;-59
2022/12/01 12:40:42;;;;;;;0.60;0.60;;;;;;;9.62;44.90;101124.41;18365323;32;20092;-61
2022/12/01 12:50:51;;;;;;;0.60;0.60;;;;;;;10.35;44.80;101118.31;18302446;32;20102;-60
2022/12/01 13:01:01;;;;;;;0.55;0.55;;;;;;;10.27;44.87;101119.97;18365691;32;20142;-59
2022/12/01 13:11:10;;;;;;;0.50;0.50;;;;;;;10.39;44.25;101120.06;18414911;32;20456;-59
2022/12/01 13:21:17;;;;;;;0.40;0.40;;;;;;;10.31;43.90;101106.06;18428588;32;20125;-59
2022/12/01 13:31:21;;;;;;;0.60;0.60;;;;;;;10.20;44.60;101113.81;18398970;32;20097;-59
2022/12/01 13:41:28;;;;;;;0.45;0.45;;;;;;;9.92;44.89;101107.38;18402441;32;20116;-59
2022/12/01 13:52:16;;;;;;;0.77;0.57;;;;;;;10.27;44.25;101096.47;18430892;32;20093;-59
2022/12/01 14:02:21;;;;;;;0.50;0.50;;;;;;;10.37;44.85;101089.59;18171910;32;20122;-59
2022/12/01 14:12:29;;;;;;;0.40;0.40;;;;;;;10.35;45.78;101088.72;18159199;32;20118;-59
2022/12/01 14:22:37;;;;;;;1.48;1.37;;;;;;;10.23;47.65;101094.69;18169555;32;20438;-59
2022/12/01 14:32:40;;;;;;;1.98;1.37;;;;;;;10.04;48.51;101091.88;18300791;32;20198;-59
2022/12/01 14:53:19;;;;;;;0.55;0.55;;;;;;;9.21;50.07;101086.47;18231700;32;20280;-59
2022/12/01 15:03:24;;;;;;;0.60;0.60;;;;;;;8.80;51.48;101093.69;18217413;32;20140;-59
2022/12/01 15:13:44;;;;;;;0.80;0.80;;;;;;;8.45;52.72;101089.59;18230807;32;20403;-60
2022/12/01 15:23:56;;;;;;;0.90;0.90;;;;;;;7.98;53.99;101092.19;18283174;32;20111;-59
2022/12/01 15:34:00;;;;;;;0.70;0.70;;;;;;;7.52;55.35;101103.41;18418434;32;20410;-59
2022/12/01 15:44:07;;;;;;;0.93;0.93;;;;;;;7.24;56.00;101107.09;18408624;32;20121;-59
2022/12/01 15:54:17;;;;;;;0.90;0.90;;;;;;;6.90;57.10;101107.16;18366103;32;20111;-59
2022/12/01 16:04:23;;;;;;;1.87;1.45;;;;;;;6.64;58.09;101110.88;18364190;32;20399;-59
2022/12/01 16:14:26;;;;;;;1.37;1.27;;;;;;;6.46;58.62;101115.59;18363810;32;20093;-59
2022/12/01 16:24:33;;;;;;;0.60;0.60;;;;;;;6.30;58.41;101125.53;18363973;32;20105;-59
2022/12/01 16:34:36;;;;;;;0.50;0.50;;;;;;;6.18;58.57;101120.03;18417844;32;20668;-59
2022/12/01 16:44:50;;;;;;;0.70;0.70;;;;;;;5.89;59.30;101133.03;18427990;32;20375;-59
2022/12/01 16:54:54;;;;;;;1.17;1.00;;;;;;;5.64;60.14;101127.09;18427424;32;20085;-59
2022/12/01 17:04:59;;;;;;;0.60;0.60;;;;;;;5.81;59.30;101132.81;18426654;32;20113;-59
2022/12/01 17:15:02;;;;;;;1.42;1.35;;;;;;;5.61;59.43;101137.38;18411499;32;20096;-59
2022/12/01 17:25:08;;;;;;;0.70;0.70;;;;;;;5.45;59.84;101139.50;18415415;32;20147;-59
2022/12/01 17:35:12;;;;;;;0.55;0.55;;;;;;;5.28;60.24;101147.66;18380326;32;20097;-59
2022/12/01 17:45:16;;;;;;;0.80;0.80;;;;;;;4.76;61.54;101146.81;18369473;32;20141;-59
2022/12/01 17:55:20;;;;;;;0.70;0.70;;;;;;;4.60;62.19;101144.53;18368800;32;20134;-59
2022/12/01 18:05:24;;;;;;;2.45;2.25;;;;;;;4.64;61.53;101147.28;18369421;32;20093;-58
2022/12/01 18:15:28;;;;;;;3.47;3.17;;;;;;;4.60;61.72;101149.72;18367669;32;20089;-59
2022/12/01 18:25:39;;;;;;;1.05;1.05;;;;;;;4.57;61.51;101151.38;18426409;32;20144;-59
2022/12/01 18:35:43;;;;;;;3.08;2.95;;;;;;;4.49;61.41;101149.31;18411075;32;20101;-59
2022/12/01 18:45:48;;;;;;;1.52;1.45;;;;;;;3.90;63.33;101150.72;18414735;32;20120;-59
2022/12/01 18:55:52;;;;;;;0.88;0.88;;;;;;;3.95;63.31;101156.91;18413086;32;20127;-59
2022/12/01 19:05:56;;;;;;;0.75;0.75;;;;;;;4.10;62.45;101153.16;18416701;32;20143;-59
2022/12/01 19:16:05;;;;;;;36.45;12.93;;;;;;;4.05;62.42;101150.41;18398216;32;20113;-59
2022/12/01 19:26:12;;;;;;;7.35;3.20;;;;;;;3.96;62.43;101166.41;18416132;32;20101;-58
2022/12/01 19:36:18;;;;;;;2.60;2.40;;;;;;;3.67;63.83;101171.38;18414470;32;20093;-58
2022/12/01 19:46:24;;;;;;;11.23;6.80;;;;;;;3.83;63.43;101166.78;18425141;32;20089;-59
2022/12/01 19:56:28;;;;;;;4.15;3.83;;;;;;;3.86;62.51;101174.66;18410707;32;20104;-58
2022/12/01 20:06:35;;;;;;;0.82;0.82;;;;;;;3.65;63.30;101178.19;18412305;32;20112;-58
2022/12/01 20:16:39;;;;;;;4.80;4.50;;;;;;;3.45;63.73;101169.66;18426315;32;20496;-59
2022/12/01 20:26:46;;;;;;;4.25;3.95;;;;;;;3.35;64.53;101183.00;18410121;32;20105;-59
2022/12/01 20:36:49;;;;;;;1.40;1.37;;;;;;;3.54;63.53;101184.62;18412137;32;20096;-59
2022/12/01 20:46:54;;;;;;;4.30;3.95;;;;;;;3.54;62.82;101185.50;18427540;32;20166;-59
2022/12/01 20:56:58;;;;;;;1.55;1.45;;;;;;;3.34;63.72;101182.16;18425591;32;20701;-59
2022/12/01 21:07:04;;;;;;;0.90;0.90;;;;;;;3.19;63.85;101190.16;18422756;32;20097;-58
2022/12/01 21:17:16;;;;;;;2.40;2.25;;;;;;;3.26;63.57;101199.87;18426193;32;20109;-59
2022/12/01 21:27:20;;;;;;;1.23;1.23;;;;;;;3.03;64.09;101202.41;18421085;32;20449;-60
2022/12/01 21:37:25;;;;;;;0.60;0.60;;;;;;;2.99;63.84;101208.28;18423136;32;20097;-59
2022/12/01 21:47:30;;;;;;;0.75;0.75;;;;;;;2.94;63.98;101216.59;18425898;32;20116;-59
2022/12/01 21:57:40;;;;;;;0.60;0.60;;;;;;;3.03;63.63;101229.87;18425278;32;20659;-59
2022/12/01 22:07:46;;;;;;;1.83;1.75;;;;;;;2.97;62.96;101224.50;18420626;32;20111;-59
2022/12/01 22:17:50;;;;;;;0.82;0.82;;;;;;;2.80;63.15;101229.81;18414295;32;20127;-59
2022/12/01 22:27:57;;;;;;;2.58;2.45;;;;;;;2.41;64.51;101225.53;18424105;32;20123;-59
2022/12/01 22:38:13;;;;;;;2.33;2.17;;;;;;;2.57;63.40;101221.97;18426885;32;20120;-59
2022/12/01 22:48:28;;;;;;;2.78;2.58;;;;;;;2.31;63.87;101218.22;18417587;32;20392;-59
2022/12/01 22:58:39;;;;;;;4.37;4.07;;;;;;;2.35;64.12;101212.41;18430577;32;20111;-59
2022/12/01 23:08:44;;;;;;;1.73;1.62;;;;;;;2.39;63.04;101203.97;18430687;32;20116;-58
2022/12/01 23:18:48;;;;;;;11.23;6.45;;;;;;;2.16;63.55;101197.81;18429722;32;20105;-59
2022/12/01 23:28:52;;;;;;;2.00;1.90;;;;;;;1.68;66.01;101198.22;18415737;32;20101;-58
2022/12/01 23:38:59;;;;;;;1.75;1.65;;;;;;;2.25;63.97;101208.50;18430079;32;20112;-58
2022/12/01 23:49:06;;;;;;;5.72;5.43;;;;;;;2.14;64.36;101209.72;18430405;32;20108;-58
2022/12/01 23:59:12;;;;;;;3.53;3.33;;;;;;;2.12;64.35;101212.22;18429472;32;20104;-58
